Time;durP1;ratioP1;P1;durP2;ratioP2;P2;SDS_P1;SDS_P2;PMS_P1;PMS_P2;Temp;Humidity;BMP_temperature;BMP_pressure;BME280_temperature;BME280_humidity;BME280_pressure;Samples;Min_cycle;Max_cycle;Signal;HPM_P1;HPM_P2
2021/09/25 00:00:30;;;;;;;5.50;1.40;;;21.10;51.30;;;;;;4896775;29;20193;-71
2021/09/25 00:02:59;;;;;;;4.17;1.00;;;21.30;52.30;;;;;;4898243;29;20260;-71
2021/09/25 00:05:28;;;;;;;3.93;1.70;;;21.20;51.80;;;;;;4897904;29;20276;-76
2021/09/25 00:07:56;;;;;;;4.10;0.97;;;21.30;52.90;;;;;;4896699;29;20609;-75
2021/09/25 00:10:24;;;;;;;2.43;1.03;;;21.20;53.00;;;;;;4896865;29;20684;-73
2021/09/25 00:12:53;;;;;;;2.43;0.90;;;21.20;53.20;;;;;;4907944;29;20208;-76
2021/09/25 00:15:21;;;;;;;3.23;1.23;;;21.20;54.90;;;;;;4904721;29;20644;-74
2021/09/25 00:17:49;;;;;;;4.20;1.27;;;21.50;54.60;;;;;;4899830;29;20193;-72
2021/09/25 00:20:19;;;;;;;5.30;1.93;;;21.50;55.80;;;;;;4904021;29;20247;-74
2021/09/25 00:22:46;;;;;;;6.43;1.60;;;21.70;58.20;;;;;;4902793;29;20555;-75
2021/09/25 00:25:14;;;;;;;2.40;1.30;;;21.80;59.20;;;;;;4899156;29;20185;-71
2021/09/25 00:27:41;;;;;;;5.23;1.20;;;21.70;58.00;;;;;;4904039;29;20185;-75
2021/09/25 00:30:11;;;;;;;6.17;1.57;;;21.70;58.50;;;;;;4901673;29;20204;-75
2021/09/25 00:32:39;;;;;;;8.33;1.50;;;21.70;59.70;;;;;;4899867;29;20212;-71
2021/09/25 00:35:09;;;;;;;11.07;2.93;;;21.70;62.10;;;;;;4905768;29;20188;-73
2021/09/25 00:37:37;;;;;;;13.37;2.43;;;21.60;69.20;;;;;;4908304;29;20185;-73
2021/09/25 00:40:06;;;;;;;12.80;2.30;;;21.60;71.20;;;;;;4898468;29;20613;-76
2021/09/25 00:42:34;;;;;;;16.97;3.47;;;21.50;72.50;;;;;;4904042;29;20224;-73
2021/09/25 00:45:04;;;;;;;9.60;2.47;;;21.40;74.10;;;;;;4899304;29;20220;-74
2021/09/25 00:47:32;;;;;;;16.37;2.83;;;21.70;74.40;;;;;;4907409;29;20185;-76
2021/09/25 00:49:59;;;;;;;21.00;3.60;;;21.70;75.20;;;;;;4897959;29;20193;-73
2021/09/25 00:52:27;;;;;;;20.60;3.40;;;21.50;76.70;;;;;;4906712;29;20265;-75
2021/09/25 00:54:54;;;;;;;20.53;4.37;;;21.50;77.70;;;;;;4899045;29;20188;-72
2021/09/25 00:57:22;;;;;;;12.63;3.00;;;21.40;77.40;;;;;;4897030;29;20185;-68
2021/09/25 00:59:49;;;;;;;17.17;3.00;;;21.40;79.10;;;;;;4900531;29;20182;-70
2021/09/25 01:02:17;;;;;;;12.63;2.50;;;21.40;79.20;;;;;;4901806;29;20224;-77
2021/09/25 01:04:49;;;;;;;12.13;3.87;;;21.40;77.70;;;;;;4900243;29;20214;-74
2021/09/25 01:07:17;;;;;;;12.67;3.53;;;21.50;79.30;;;;;;4892601;29;20224;-76
2021/09/25 01:09:44;;;;;;;18.90;3.67;;;21.70;80.40;;;;;;4896971;29;20211;-73
2021/09/25 01:12:12;;;;;;;15.57;3.90;;;21.80;80.50;;;;;;4896381;29;20261;-79
2021/09/25 01:14:40;;;;;;;13.60;3.47;;;21.50;80.40;;;;;;4899364;29;20216;-75
2021/09/25 01:17:10;;;;;;;13.27;3.33;;;21.50;82.50;;;;;;4898886;29;20221;-74
2021/09/25 01:19:39;;;;;;;16.70;4.00;;;21.50;80.70;;;;;;4896830;29;20174;-74
2021/09/25 01:22:07;;;;;;;20.33;3.37;;;21.40;82.50;;;;;;4897030;29;20326;-75
2021/09/25 01:24:35;;;;;;;19.17;4.00;;;21.50;83.10;;;;;;4894301;29;20288;-72
2021/09/25 01:27:03;;;;;;;25.20;4.43;;;21.50;84.20;;;;;;4896026;29;20189;-68
2021/09/25 01:29:31;;;;;;;16.97;3.30;;;21.80;85.00;;;;;;4896232;29;20215;-69
2021/09/25 01:31:58;;;;;;;20.07;4.20;;;21.70;85.50;;;;;;4896719;29;20655;-70
2021/09/25 01:34:26;;;;;;;13.00;3.20;;;21.80;86.30;;;;;;4896828;29;20189;-70
2021/09/25 01:36:53;;;;;;;14.67;4.00;;;21.70;86.80;;;;;;4896770;29;20174;-70
2021/09/25 01:39:21;;;;;;;21.13;3.90;;;21.60;87.50;;;;;;4896994;29;20189;-67
2021/09/25 01:41:48;;;;;;;17.27;3.30;;;21.50;87.80;;;;;;4899384;29;20265;-69
2021/09/25 01:44:16;;;;;;;17.07;3.27;;;21.70;88.50;;;;;;4900258;29;20205;-68
2021/09/25 01:46:43;;;;;;;21.83;3.70;;;21.70;88.30;;;;;;4900144;29;20185;-67
2021/09/25 01:49:11;;;;;;;23.13;3.60;;;21.80;88.00;;;;;;4900206;29;20189;-68
2021/09/25 01:51:38;;;;;;;16.13;3.80;;;21.80;86.90;;;;;;4899899;29;20217;-68
2021/09/25 01:54:06;;;;;;;24.03;3.30;;;21.70;87.60;;;;;;4899070;29;20189;-68
2021/09/25 01:56:34;;;;;;;18.47;3.00;;;21.80;85.80;;;;;;4899913;29;20545;-68
2021/09/25 01:59:01;;;;;;;14.03;2.90;;;22.00;86.00;;;;;;4900068;29;20244;-68
2021/09/25 02:01:29;;;;;;;28.07;4.80;;;22.30;85.10;;;;;;4899867;29;20213;-69
2021/09/25 02:03:56;;;;;;;18.70;3.10;;;22.30;86.70;;;;;;4899650;29;20580;-69
2021/09/25 02:06:25;;;;;;;14.73;3.27;;;22.10;87.50;;;;;;4900069;29;20244;-70
2021/09/25 02:08:52;;;;;;;19.00;4.00;;;22.10;86.10;;;;;;4899597;29;20659;-73
2021/09/25 02:11:20;;;;;;;20.50;4.70;;;22.10;86.20;;;;;;4899545;29;20248;-69
2021/09/25 02:13:48;;;;;;;24.00;4.17;;;22.00;87.80;;;;;;4899322;29;20289;-68
2021/09/25 02:16:16;;;;;;;13.70;3.77;;;22.10;87.60;;;;;;4899260;29;20217;-68
2021/09/25 02:18:44;;;;;;;26.20;4.13;;;21.70;89.50;;;;;;4898381;29;20644;-67
2021/09/25 02:21:12;;;;;;;18.70;3.80;;;21.60;90.10;;;;;;4899676;29;20217;-66
2021/09/25 02:23:39;;;;;;;25.30;4.43;;;21.50;90.80;;;;;;4898160;29;20248;-68
2021/09/25 02:26:06;;;;;;;17.90;4.40;;;21.60;90.70;;;;;;4897817;29;20256;-67
2021/09/25 02:28:34;;;;;;;15.70;3.10;;;22.00;90.60;;;;;;4899234;29;20193;-68
2021/09/25 02:31:03;;;;;;;14.60;3.23;;;21.90;90.40;;;;;;4899238;29;20724;-72
2021/09/25 02:33:30;;;;;;;15.77;3.37;;;21.80;89.90;;;;;;4899440;29;20189;-67
2021/09/25 02:35:57;;;;;;;15.77;3.07;;;21.60;90.20;;;;;;4898546;29;20206;-67
2021/09/25 02:38:25;;;;;;;13.13;3.23;;;21.10;90.50;;;;;;4899257;29;20245;-71
2021/09/25 02:40:52;;;;;;;17.10;3.67;;;21.30;90.40;;;;;;4899027;29;20671;-74
2021/09/25 02:43:20;;;;;;;16.23;3.07;;;21.60;90.00;;;;;;4898909;29;20582;-70
2021/09/25 02:45:47;;;;;;;12.50;3.03;;;21.70;90.10;;;;;;4898864;29;20185;-74
2021/09/25 02:48:15;;;;;;;13.60;3.33;;;21.90;90.00;;;;;;4899311;29;20217;-69
2021/09/25 02:50:42;;;;;;;19.33;3.77;;;21.90;89.50;;;;;;4901173;29;20181;-74
2021/09/25 02:53:09;;;;;;;13.27;2.87;;;21.60;89.40;;;;;;4907614;29;20209;-68
2021/09/25 02:55:37;;;;;;;18.40;3.10;;;21.60;90.30;;;;;;4898175;29;20204;-70
2021/09/25 02:58:04;;;;;;;13.60;2.87;;;21.00;90.20;;;;;;4898675;29;20662;-72
2021/09/25 03:00:32;;;;;;;16.93;3.20;;;21.10;90.50;;;;;;4898885;29;20209;-70
2021/09/25 03:02:59;;;;;;;11.57;2.73;;;21.20;90.40;;;;;;4905397;29;20241;-69
2021/09/25 03:05:26;;;;;;;14.87;3.00;;;21.60;90.10;;;;;;4898454;29;20190;-69
2021/09/25 03:07:54;;;;;;;21.03;3.87;;;22.00;89.70;;;;;;4898616;29;20186;-68
2021/09/25 03:10:21;;;;;;;14.40;3.20;;;21.60;90.30;;;;;;4897873;29;20221;-71
2021/09/25 03:12:48;;;;;;;15.13;2.80;;;21.30;90.40;;;;;;4901551;29;20185;-71
2021/09/25 03:15:16;;;;;;;15.20;3.30;;;20.80;90.90;;;;;;4904637;29;20177;-70
2021/09/25 03:17:43;;;;;;;18.47;3.13;;;20.40;91.60;;;;;;4900192;29;20209;-73
2021/09/25 03:20:11;;;;;;;17.33;3.30;;;20.70;91.40;;;;;;4902425;29;20221;-68
2021/09/25 03:22:39;;;;;;;12.90;3.13;;;20.90;90.90;;;;;;4902657;29;20856;-69
2021/09/25 03:25:08;;;;;;;11.43;3.33;;;21.10;90.60;;;;;;4895132;29;20272;-72
2021/09/25 03:27:36;;;;;;;24.07;3.07;;;21.80;90.10;;;;;;4898313;29;20193;-69
2021/09/25 03:30:05;;;;;;;15.97;3.00;;;21.50;89.80;;;;;;4898854;29;20276;-69
2021/09/25 03:32:33;;;;;;;22.40;3.13;;;20.60;91.10;;;;;;4897884;29;20209;-74
2021/09/25 03:35:01;;;;;;;17.07;3.17;;;20.60;91.60;;;;;;4911592;29;20712;-71
2021/09/25 03:37:28;;;;;;;17.37;3.70;;;20.60;91.50;;;;;;4898207;29;20200;-71
2021/09/25 03:39:55;;;;;;;21.80;3.70;;;20.60;91.20;;;;;;4900762;29;20181;-70
2021/09/25 03:42:23;;;;;;;13.00;3.13;;;20.40;91.20;;;;;;4897313;29;20189;-71
2021/09/25 03:44:50;;;;;;;16.03;2.90;;;20.30;91.50;;;;;;4897193;29;20256;-71
2021/09/25 03:47:17;;;;;;;15.70;3.20;;;20.20;91.00;;;;;;4897560;29;20189;-72
2021/09/25 03:49:45;;;;;;;15.70;2.93;;;19.80;90.60;;;;;;4896695;29;20189;-70
2021/09/25 03:52:12;;;;;;;16.67;3.20;;;20.30;91.00;;;;;;4893127;29;20561;-72
2021/09/25 03:54:39;;;;;;;17.73;3.43;;;21.00;90.50;;;;;;4894446;29;20193;-72
2021/09/25 03:57:07;;;;;;;16.13;4.13;;;21.40;90.00;;;;;;4895618;29;20196;-71
2021/09/25 03:59:35;;;;;;;19.93;3.20;;;21.50;89.40;;;;;;4897321;29;20181;-68
2021/09/25 04:02:02;;;;;;;14.23;2.70;;;20.90;89.70;;;;;;4896891;29;20300;-72
2021/09/25 04:04:29;;;;;;;19.63;3.00;;;20.80;89.00;;;;;;4895842;29;20186;-70
2021/09/25 04:06:57;;;;;;;16.90;2.60;;;20.80;89.60;;;;;;4896414;29;20181;-69
2021/09/25 04:09:25;;;;;;;12.43;3.03;;;21.50;88.20;;;;;;4896971;29;20636;-67
2021/09/25 04:11:52;;;;;;;16.53;2.77;;;21.60;86.70;;;;;;4896456;29;20624;-73
2021/09/25 04:14:21;;;;;;;15.40;2.93;;;21.80;87.10;;;;;;4900707;29;20232;-68
2021/09/25 04:16:48;;;;;;;22.00;2.90;;;21.30;88.60;;;;;;4896417;29;20562;-70
2021/09/25 04:19:16;;;;;;;20.43;3.10;;;20.70;90.00;;;;;;4896901;29;20187;-71
2021/09/25 04:21:43;;;;;;;19.33;3.97;;;20.80;90.50;;;;;;4896037;29;20209;-74
2021/09/25 04:24:11;;;;;;;13.70;2.77;;;20.90;90.70;;;;;;4895494;29;20185;-73
2021/09/25 04:26:39;;;;;;;14.60;2.90;;;20.90;90.30;;;;;;4896408;29;20184;-72
2021/09/25 04:29:06;;;;;;;22.13;4.40;;;21.00;90.80;;;;;;4896682;29;20674;-72
2021/09/25 04:31:35;;;;;;;16.57;3.80;;;21.10;90.50;;;;;;4896890;29;20177;-73
2021/09/25 04:34:05;;;;;;;18.30;2.87;;;20.70;91.10;;;;;;4898317;29;20692;-74
2021/09/25 04:36:33;;;;;;;17.27;2.43;;;21.30;90.80;;;;;;4894402;29;20190;-75
2021/09/25 04:39:01;;;;;;;17.50;3.07;;;21.80;89.10;;;;;;4898446;29;20660;-75
2021/09/25 04:41:28;;;;;;;13.83;3.07;;;22.00;88.70;;;;;;4904984;29;20224;-74
2021/09/25 04:43:55;;;;;;;8.83;2.50;;;22.00;88.60;;;;;;4898451;29;20209;-69
2021/09/25 04:46:23;;;;;;;15.50;2.53;;;22.50;87.90;;;;;;4896543;29;20196;-73
2021/09/25 04:48:50;;;;;;;11.63;2.40;;;22.00;87.20;;;;;;4901721;29;20188;-73
2021/09/25 04:51:18;;;;;;;15.13;3.30;;;21.00;89.60;;;;;;4904751;29;20197;-70
2021/09/25 04:53:46;;;;;;;20.43;3.10;;;20.20;90.90;;;;;;4894652;29;20344;-70
2021/09/25 04:56:14;;;;;;;21.03;3.00;;;20.10;91.10;;;;;;4899378;29;20603;-76
2021/09/25 04:58:42;;;;;;;9.73;2.70;;;19.70;91.80;;;;;;4898612;29;20185;-72
2021/09/25 05:01:10;;;;;;;13.27;2.57;;;19.50;91.80;;;;;;4901776;29;20662;-74
2021/09/25 05:03:38;;;;;;;9.77;2.30;;;19.10;92.20;;;;;;4897343;29;20632;-70
2021/09/25 05:06:05;;;;;;;13.33;2.10;;;18.90;92.40;;;;;;4896797;29;20220;-76
2021/09/25 05:08:32;;;;;;;13.33;2.43;;;19.30;92.20;;;;;;4898376;29;20626;-75
2021/09/25 05:11:00;;;;;;;12.90;2.50;;;19.40;91.80;;;;;;4901326;29;20240;-74
2021/09/25 05:13:27;;;;;;;14.43;2.87;;;19.40;91.60;;;;;;4896118;29;20679;-74
2021/09/25 05:15:55;;;;;;;11.07;2.77;;;19.40;92.20;;;;;;4892322;29;20189;-77
2021/09/25 05:18:23;;;;;;;20.37;2.83;;;20.30;90.90;;;;;;4899086;29;20201;-74
2021/09/25 05:20:51;;;;;;;15.43;3.03;;;20.00;90.90;;;;;;4897961;29;20217;-77
2021/09/25 05:23:19;;;;;;;19.63;2.90;;;19.60;91.10;;;;;;4898562;29;20217;-73
2021/09/25 05:25:47;;;;;;;10.83;2.33;;;18.90;91.70;;;;;;4900407;29;20253;-75
2021/09/25 05:28:14;;;;;;;12.03;2.20;;;18.30;92.50;;;;;;4899508;29;20237;-76
2021/09/25 05:30:41;;;;;;;13.03;2.37;;;18.10;93.20;;;;;;4901759;29;20281;-77
2021/09/25 05:33:09;;;;;;;13.53;2.83;;;19.00;92.30;;;;;;4902002;29;20263;-73
2021/09/25 05:35:37;;;;;;;11.97;2.17;;;19.70;91.00;;;;;;4900124;29;20186;-72
2021/09/25 05:38:04;;;;;;;13.97;2.70;;;20.60;89.60;;;;;;4899851;29;20228;-74
2021/09/25 05:40:32;;;;;;;10.80;2.50;;;20.70;88.80;;;;;;4900440;29;20209;-75
2021/09/25 05:42:59;;;;;;;10.70;2.73;;;20.40;89.20;;;;;;4914054;29;20208;-74
2021/09/25 05:45:27;;;;;;;14.87;2.67;;;20.10;89.20;;;;;;4901322;29;20259;-79
2021/09/25 05:47:54;;;;;;;6.07;2.20;;;19.20;90.40;;;;;;4899213;29;20188;-72
2021/09/25 05:50:21;;;;;;;12.83;2.33;;;18.70;91.40;;;;;;4899285;29;20342;-74
2021/09/25 05:52:49;;;;;;;13.47;2.00;;;18.30;92.00;;;;;;4905242;29;20189;-74
2021/09/25 05:55:17;;;;;;;11.27;2.60;;;18.00;92.40;;;;;;4899977;29;20200;-74
2021/09/25 05:57:44;;;;;;;11.13;2.17;;;17.80;93.00;;;;;;4899796;29;20197;-73
2021/09/25 06:00:12;;;;;;;11.37;2.20;;;18.00;93.20;;;;;;4899254;29;20216;-74
2021/09/25 06:02:43;;;;;;;13.17;2.20;;;18.20;93.10;;;;;;4899234;29;20224;-73
2021/09/25 06:05:11;;;;;;;14.83;2.43;;;18.20;92.90;;;;;;4902602;29;20193;-74
2021/09/25 06:07:39;;;;;;;14.40;2.90;;;17.90;93.20;;;;;;4900938;29;20190;-72
2021/09/25 06:10:07;;;;;;;11.13;2.30;;;18.00;93.40;;;;;;4899074;29;20192;-72
2021/09/25 06:12:34;;;;;;;18.00;2.63;;;18.00;93.50;;;;;;4905751;29;20186;-71
2021/09/25 06:15:02;;;;;;;15.13;4.03;;;17.80;93.30;;;;;;4908445;29;20193;-73
2021/09/25 06:17:30;;;;;;;11.43;2.30;;;17.60;94.10;;;;;;4899402;29;20237;-72
2021/09/25 06:19:57;;;;;;;14.40;2.20;;;17.50;94.50;;;;;;4905682;29;20996;-73
2021/09/25 06:22:25;;;;;;;17.63;2.27;;;17.30;94.10;;;;;;4906452;29;20770;-73
2021/09/25 06:24:53;;;;;;;11.97;2.27;;;17.40;94.10;;;;;;4899870;29;20189;-73
2021/09/25 06:27:21;;;;;;;13.67;2.30;;;17.90;93.70;;;;;;4904207;29;20268;-72
2021/09/25 06:29:48;;;;;;;10.53;2.07;;;18.90;92.10;;;;;;4900742;29;20181;-80
2021/09/25 06:32:16;;;;;;;15.33;2.57;;;19.10;91.50;;;;;;4906364;29;20205;-74
2021/09/25 06:34:43;;;;;;;19.43;2.90;;;18.80;92.00;;;;;;4906125;29;20209;-74
2021/09/25 06:37:11;;;;;;;17.10;2.50;;;18.30;92.80;;;;;;4902648;29;20185;-70
2021/09/25 06:39:38;;;;;;;15.27;2.50;;;18.00;93.30;;;;;;4911341;29;20184;-75
2021/09/25 06:42:05;;;;;;;16.97;2.60;;;17.50;94.50;;;;;;4899841;29;20216;-70
2021/09/25 06:44:33;;;;;;;13.10;3.00;;;17.50;95.00;;;;;;4900850;29;20223;-69
2021/09/25 06:47:00;;;;;;;11.03;2.50;;;17.40;95.60;;;;;;4899228;29;20177;-72
2021/09/25 06:49:27;;;;;;;15.00;3.20;;;17.30;95.80;;;;;;4899326;29;20620;-72
2021/09/25 06:51:55;;;;;;;13.00;2.50;;;17.40;96.20;;;;;;4898309;29;20189;-68
2021/09/25 06:54:22;;;;;;;20.10;3.17;;;17.20;95.90;;;;;;4899042;29;20244;-71
2021/09/25 06:56:49;;;;;;;14.07;2.90;;;17.10;96.20;;;;;;4894590;29;20706;-68
2021/09/25 06:59:17;;;;;;;12.87;2.60;;;16.90;96.70;;;;;;4898612;29;20184;-68
2021/09/25 07:01:44;;;;;;;15.93;3.07;;;16.80;97.60;;;;;;4900245;29;20219;-73
2021/09/25 07:04:11;;;;;;;15.63;3.50;;;16.60;99.60;;;;;;4912457;29;20180;-68
2021/09/25 07:06:40;;;;;;;17.53;2.83;;;16.60;99.90;;;;;;4901181;29;20191;-74
2021/09/25 07:09:09;;;;;;;12.60;2.67;;;16.50;99.90;;;;;;4887405;29;20195;-72
2021/09/25 07:11:37;;;;;;;12.70;2.73;;;16.40;99.90;;;;;;4900429;29;20774;-70
2021/09/25 07:14:05;;;;;;;15.57;2.47;;;16.30;99.90;;;;;;4897550;29;20183;-70
2021/09/25 07:16:32;;;;;;;18.80;3.40;;;16.20;99.90;;;;;;4896720;29;20196;-71
2021/09/25 07:18:59;;;;;;;14.17;3.00;;;16.20;99.90;;;;;;4899589;29;20191;-72
2021/09/25 07:21:27;;;;;;;14.30;4.63;;;16.20;99.90;;;;;;4897098;29;20265;-69
2021/09/25 07:23:54;;;;;;;13.40;2.40;;;16.20;99.90;;;;;;4897059;29;20197;-71
2021/09/25 07:26:22;;;;;;;14.83;2.53;;;16.10;99.90;;;;;;4906543;29;20225;-71
2021/09/25 07:28:49;;;;;;;13.83;2.63;;;16.20;99.90;;;;;;4896229;29;20187;-72
2021/09/25 07:31:17;;;;;;;17.70;3.20;;;16.20;99.90;;;;;;4904059;29;20196;-71
2021/09/25 07:33:44;;;;;;;12.87;2.93;;;16.20;99.90;;;;;;4916062;29;20534;-70
2021/09/25 07:36:11;;;;;;;12.27;3.00;;;16.20;99.60;;;;;;4896619;29;20547;-71
2021/09/25 07:38:39;;;;;;;16.53;2.50;;;16.20;99.90;;;;;;4901301;29;20237;-71
2021/09/25 07:41:06;;;;;;;10.97;2.30;;;16.20;99.90;;;;;;4902790;29;20214;-73
2021/09/25 07:43:34;;;;;;;14.20;2.53;;;16.00;99.90;;;;;;4903737;29;20202;-72
2021/09/25 07:46:01;;;;;;;17.83;3.30;;;16.00;99.90;;;;;;4898157;29;20209;-69
2021/09/25 07:48:29;;;;;;;19.47;3.27;;;16.00;99.90;;;;;;4897009;29;20197;-71
2021/09/25 07:50:56;;;;;;;12.37;3.50;;;16.00;99.90;;;;;;4896956;29;20190;-71
2021/09/25 07:53:23;;;;;;;17.77;3.13;;;15.90;99.90;;;;;;4895359;29;20240;-70
2021/09/25 07:55:51;;;;;;;12.87;2.97;;;15.90;99.90;;;;;;4899961;29;20234;-71
2021/09/25 07:58:18;;;;;;;16.07;2.70;;;15.90;99.90;;;;;;4899009;29;20207;-72
2021/09/25 08:00:47;;;;;;;17.73;2.97;;;16.00;99.90;;;;;;4901932;29;20231;-73
2021/09/25 08:03:14;;;;;;;19.20;2.90;;;15.90;99.90;;;;;;4903578;29;20199;-70
2021/09/25 08:05:41;;;;;;;13.07;2.60;;;15.90;99.90;;;;;;4899249;29;20237;-75
2021/09/25 08:08:09;;;;;;;12.90;3.47;;;15.80;99.90;;;;;;4895886;29;20223;-70
2021/09/25 08:10:36;;;;;;;20.23;3.20;;;15.70;99.90;;;;;;4813176;29;2513889;-72
2021/09/25 08:13:04;;;;;;;12.37;2.43;;;15.70;99.90;;;;;;4897329;29;20193;-72
2021/09/25 08:15:31;;;;;;;18.67;3.40;;;15.50;99.90;;;;;;4896242;29;20640;-71
2021/09/25 08:17:59;;;;;;;24.97;4.63;;;15.50;99.90;;;;;;4898873;29;20185;-71
2021/09/25 08:20:26;;;;;;;16.17;3.93;;;15.40;99.90;;;;;;4910156;29;20612;-72
2021/09/25 08:22:55;;;;;;;18.60;4.40;;;15.30;99.90;;;;;;4902456;29;20218;-72
2021/09/25 08:25:22;;;;;;;14.43;2.50;;;15.20;99.90;;;;;;4908047;29;20216;-69
2021/09/25 08:27:49;;;;;;;15.20;2.63;;;15.10;99.90;;;;;;4896731;29;20210;-72
2021/09/25 08:30:19;;;;;;;20.90;3.20;;;15.00;99.90;;;;;;4897466;29;20188;-73
2021/09/25 08:32:47;;;;;;;16.23;2.80;;;15.10;99.90;;;;;;4897630;29;20199;-72
2021/09/25 08:35:15;;;;;;;15.30;3.00;;;15.00;99.90;;;;;;4902874;29;20583;-68
2021/09/25 08:37:42;;;;;;;13.27;2.80;;;15.10;99.90;;;;;;4908532;29;20218;-71
2021/09/25 08:40:13;;;;;;;18.23;2.83;;;15.00;99.90;;;;;;4897100;29;20197;-69
2021/09/25 08:42:40;;;;;;;13.73;2.90;;;15.10;99.90;;;;;;4905476;29;20640;-67
2021/09/25 08:45:09;;;;;;;18.83;2.93;;;15.10;99.90;;;;;;4896906;29;20197;-69
2021/09/25 08:47:36;;;;;;;17.50;2.90;;;15.10;99.90;;;;;;4904190;29;20189;-68
2021/09/25 08:50:06;;;;;;;14.33;3.90;;;15.10;99.90;;;;;;4897964;29;20190;-69
2021/09/25 08:52:34;;;;;;;17.13;3.57;;;15.20;99.90;;;;;;4909503;29;20282;-67
2021/09/25 08:55:02;;;;;;;21.60;3.27;;;15.30;99.90;;;;;;4896754;29;20209;-71
2021/09/25 08:57:30;;;;;;;15.47;2.93;;;15.30;99.90;;;;;;4896284;29;20213;-67
2021/09/25 09:00:17;;;;;;;15.70;2.77;;;15.20;99.90;;;;;;4896428;29;20521;-68
2021/09/25 09:02:45;;;;;;;13.70;2.50;;;15.20;99.90;;;;;;4896469;29;20205;-67
2021/09/25 09:05:25;;;;;;;14.20;2.80;;;15.20;99.90;;;;;;4897655;29;20193;-70
2021/09/25 09:07:53;;;;;;;14.60;3.13;;;15.10;99.90;;;;;;4896672;29;20370;-67
2021/09/25 09:10:20;;;;;;;14.20;2.80;;;15.00;99.90;;;;;;4903655;29;20240;-68
2021/09/25 09:12:48;;;;;;;23.93;5.07;;;15.00;99.90;;;;;;4899729;29;20194;-70
2021/09/25 09:15:16;;;;;;;14.67;3.10;;;15.00;99.90;;;;;;4909814;29;20251;-67
2021/09/25 09:17:44;;;;;;;12.93;2.83;;;15.00;99.90;;;;;;4904547;29;20529;-68
2021/09/25 09:20:11;;;;;;;15.63;2.57;;;15.00;99.90;;;;;;4908411;29;20232;-66
2021/09/25 09:22:39;;;;;;;12.33;2.40;;;15.00;99.90;;;;;;4896566;29;20224;-70
2021/09/25 09:25:08;;;;;;;9.00;2.60;;;15.00;99.90;;;;;;4887135;29;20657;-69
2021/09/25 09:27:43;;;;;;;11.70;2.97;;;15.00;99.90;;;;;;4892273;29;20526;-67
2021/09/25 09:30:14;;;;;;;17.80;3.43;;;15.00;99.90;;;;;;4896720;29;20644;-68
2021/09/25 09:32:48;;;;;;;16.37;5.67;;;15.00;99.90;;;;;;4896567;29;20258;-71
2021/09/25 09:35:20;;;;;;;10.93;3.20;;;15.00;99.90;;;;;;4896966;29;20195;-72
2021/09/25 09:37:48;;;;;;;14.00;2.63;;;15.00;99.90;;;;;;4904104;29;20665;-71
2021/09/25 09:40:19;;;;;;;15.33;3.40;;;15.00;99.90;;;;;;4905157;29;20186;-72
2021/09/25 09:42:47;;;;;;;10.00;2.00;;;15.00;99.90;;;;;;4900522;29;20203;-71
2021/09/25 09:45:27;;;;;;;16.33;3.03;;;15.10;99.90;;;;;;4897711;29;20211;-71
2021/09/25 09:47:59;;;;;;;9.40;2.40;;;15.00;99.90;;;;;;4900784;29;20181;-71
2021/09/25 09:50:29;;;;;;;11.20;2.20;;;15.00;99.90;;;;;;4897073;29;20185;-72
2021/09/25 09:53:11;;;;;;;10.13;3.07;;;15.00;99.90;;;;;;4898148;29;20193;-71
2021/09/25 09:55:39;;;;;;;13.23;2.30;;;15.00;99.90;;;;;;4903672;29;20676;-70
2021/09/25 09:58:07;;;;;;;14.33;2.73;;;15.00;99.90;;;;;;4910109;29;20189;-71
2021/09/25 10:00:38;;;;;;;10.33;2.50;;;15.00;99.90;;;;;;4899248;29;20795;-72
2021/09/25 10:03:07;;;;;;;18.63;4.20;;;15.00;99.90;;;;;;4901399;29;20203;-72
2021/09/25 10:05:36;;;;;;;13.33;2.63;;;15.10;99.90;;;;;;4900198;29;20209;-73
2021/09/25 10:08:04;;;;;;;17.07;2.80;;;15.10;99.90;;;;;;4899489;29;20278;-70
2021/09/25 10:10:32;;;;;;;12.73;2.30;;;15.10;99.90;;;;;;4903077;29;20232;-66
2021/09/25 10:13:00;;;;;;;9.13;2.17;;;15.20;99.90;;;;;;4903347;29;20646;-69
2021/09/25 10:15:28;;;;;;;12.33;2.90;;;15.10;99.90;;;;;;4899287;29;20666;-70
2021/09/25 10:17:55;;;;;;;6.60;2.00;;;15.10;99.90;;;;;;4900647;29;20754;-70
2021/09/25 10:20:23;;;;;;;9.20;2.17;;;15.20;99.90;;;;;;4899281;29;20273;-74
2021/09/25 10:22:51;;;;;;;5.77;1.90;;;15.20;99.90;;;;;;4907974;29;20217;-72
2021/09/25 10:25:19;;;;;;;15.63;2.53;;;15.20;99.90;;;;;;4898356;29;20189;-74
2021/09/25 10:27:47;;;;;;;7.00;1.80;;;15.10;99.90;;;;;;4897917;29;20256;-75
2021/09/25 10:30:15;;;;;;;13.10;3.83;;;15.10;99.90;;;;;;4896729;29;20185;-72
2021/09/25 10:32:53;;;;;;;21.03;3.27;;;15.10;99.90;;;;;;4899723;29;20190;-77
2021/09/25 10:35:28;;;;;;;13.60;2.37;;;14.90;99.90;;;;;;4899192;29;20220;-75
2021/09/25 10:38:01;;;;;;;15.00;3.90;;;14.80;99.90;;;;;;4898648;29;20216;-72
2021/09/25 10:40:33;;;;;;;14.30;2.70;;;14.80;99.90;;;;;;4898244;29;20600;-73
2021/09/25 10:43:20;;;;;;;16.43;3.20;;;14.80;99.90;;;;;;4896245;29;20195;-72
2021/09/25 10:45:53;;;;;;;11.47;2.80;;;14.70;99.90;;;;;;4898688;29;20193;-73
2021/09/25 10:48:23;;;;;;;15.80;3.13;;;14.70;99.90;;;;;;4898948;29;20249;-70
2021/09/25 10:50:52;;;;;;;14.33;2.63;;;14.80;99.90;;;;;;4898684;29;20593;-72
2021/09/25 10:53:28;;;;;;;21.13;2.67;;;14.70;99.90;;;;;;4897762;29;20579;-72
2021/09/25 10:56:02;;;;;;;23.37;3.03;;;14.60;99.90;;;;;;4898544;29;20609;-72
2021/09/25 10:58:33;;;;;;;15.17;2.57;;;14.60;99.90;;;;;;4898096;29;20280;-71
2021/09/25 11:01:11;;;;;;;15.67;2.80;;;14.60;99.90;;;;;;4897948;29;20213;-72
2021/09/25 11:03:47;;;;;;;8.83;2.10;;;14.60;99.90;;;;;;4897354;29;20280;-72
2021/09/25 11:06:25;;;;;;;9.57;3.00;;;14.70;99.90;;;;;;4898690;29;20227;-71
2021/09/25 11:09:09;;;;;;;17.53;2.33;;;14.60;99.90;;;;;;4896685;29;20586;-74
2021/09/25 11:11:49;;;;;;;14.57;2.80;;;14.60;99.90;;;;;;4894892;29;20280;-74
2021/09/25 11:14:21;;;;;;;16.03;3.60;;;14.50;99.90;;;;;;4897458;29;20197;-72
2021/09/25 11:17:00;;;;;;;7.10;1.97;;;14.50;99.90;;;;;;4898482;29;20277;-72
2021/09/25 11:19:29;;;;;;;11.03;2.40;;;14.50;99.90;;;;;;4898494;29;20189;-70
2021/09/25 11:22:16;;;;;;;15.43;2.63;;;14.40;99.90;;;;;;4889450;29;20627;-70
2021/09/25 11:25:02;;;;;;;10.67;2.53;;;14.40;99.90;;;;;;4890187;29;20280;-71
2021/09/25 11:27:33;;;;;;;9.47;2.77;;;14.40;99.90;;;;;;4885818;29;20250;-72
2021/09/25 11:30:24;;;;;;;17.50;2.73;;;14.40;99.90;;;;;;4897638;29;20242;-72
2021/09/25 11:32:57;;;;;;;8.33;2.20;;;14.40;99.90;;;;;;4896391;29;20189;-72
2021/09/25 11:35:33;;;;;;;8.63;2.27;;;14.30;99.90;;;;;;4897338;29;20248;-73
2021/09/25 11:38:03;;;;;;;9.70;2.30;;;14.20;99.90;;;;;;4897889;29;20193;-73
2021/09/25 11:40:38;;;;;;;10.30;2.10;;;14.20;99.90;;;;;;4897374;29;20228;-73
2021/09/25 11:43:10;;;;;;;14.80;2.40;;;14.20;99.90;;;;;;4900909;29;20188;-73
2021/09/25 11:45:42;;;;;;;9.80;2.43;;;14.30;99.90;;;;;;4898095;29;20245;-72
2021/09/25 11:48:12;;;;;;;23.57;3.60;;;14.20;99.90;;;;;;4897764;29;20236;-71
2021/09/25 11:50:47;;;;;;;17.63;2.47;;;14.30;99.90;;;;;;4898265;29;20692;-72
2021/09/25 11:53:17;;;;;;;12.07;2.30;;;14.40;99.90;;;;;;4897814;29;20181;-72
2021/09/25 11:55:46;;;;;;;12.43;2.40;;;14.40;99.90;;;;;;4896249;29;20197;-72
2021/09/25 11:58:17;;;;;;;12.73;2.30;;;14.40;99.90;;;;;;4895350;29;20192;-71
2021/09/25 12:00:51;;;;;;;13.67;2.30;;;14.30;99.90;;;;;;4897231;29;20213;-71
2021/09/25 12:03:21;;;;;;;11.20;2.33;;;14.40;99.90;;;;;;4897611;29;20641;-72
2021/09/25 12:05:51;;;;;;;14.07;2.57;;;14.40;99.90;;;;;;4897577;29;20212;-73
2021/09/25 12:08:27;;;;;;;10.70;2.20;;;14.30;99.90;;;;;;4897036;29;20200;-70
2021/09/25 12:11:03;;;;;;;12.63;2.20;;;14.20;99.90;;;;;;4894913;29;20233;-74
2021/09/25 12:13:37;;;;;;;11.67;2.10;;;14.20;99.90;;;;;;4895116;29;20203;-72
2021/09/25 12:16:07;;;;;;;11.53;2.90;;;14.10;99.90;;;;;;4897933;29;20218;-73
2021/09/25 12:18:42;;;;;;;12.87;2.83;;;14.20;99.90;;;;;;4895392;29;20256;-75
2021/09/25 12:21:18;;;;;;;16.97;2.50;;;14.20;99.90;;;;;;4897489;29;20299;-70
2021/09/25 12:23:51;;;;;;;10.97;2.00;;;14.20;99.90;;;;;;4895964;29;20241;-75
2021/09/25 12:26:28;;;;;;;7.93;2.00;;;14.20;99.90;;;;;;4897668;29;20640;-71
2021/09/25 12:29:03;;;;;;;13.13;2.00;;;14.20;99.90;;;;;;4895990;29;20192;-71
2021/09/25 12:31:36;;;;;;;12.13;2.27;;;14.30;99.90;;;;;;4897587;29;20197;-71
2021/09/25 12:34:24;;;;;;;15.20;2.93;;;14.40;99.90;;;;;;4911913;29;20195;-72
2021/09/25 12:37:00;;;;;;;15.10;2.63;;;14.40;99.90;;;;;;4897165;29;20190;-71
2021/09/25 12:39:31;;;;;;;13.47;2.27;;;14.40;99.90;;;;;;4897127;29;20216;-68
2021/09/25 12:42:02;;;;;;;6.93;1.87;;;14.40;99.90;;;;;;4897359;29;20241;-72
2021/09/25 12:44:35;;;;;;;13.67;2.17;;;14.30;99.90;;;;;;4897241;29;20531;-71
2021/09/25 12:47:03;;;;;;;12.53;2.30;;;14.30;99.90;;;;;;4897429;29;20181;-70